sensor_id;sensor_type;location;lat;lon;timestamp;pressure;altitude;pressure_sealevel;temperature;humidity
8941;BME280;4505;43.406;23.226;2023-02-23T00:00:23;99781.47;;;6.11;100.00
8941;BME280;4505;43.406;23.226;2023-02-23T00:02:53;99775.97;;;5.93;100.00
8941;BME280;4505;43.406;23.226;2023-02-23T00:05:26;99784.50;;;5.95;100.00
8941;BME280;4505;43.406;23.226;2023-02-23T00:07:58;99782.44;;;5.77;100.00
8941;BME280;4505;43.406;23.226;2023-02-23T00:10:26;99781.66;;;5.83;100.00
8941;BME280;4505;43.406;23.226;2023-02-23T00:12:56;99783.25;;;5.84;100.00
8941;BME280;4505;43.406;23.226;2023-02-23T00:15:25;99767.47;;;5.98;100.00
8941;BME280;4505;43.406;23.226;2023-02-23T00:17:54;99782.69;;;5.89;100.00
8941;BME280;4505;43.406;23.226;2023-02-23T00:20:21;99779.66;;;6.05;100.00
8941;BME280;4505;43.406;23.226;2023-02-23T00:23:00;99778.63;;;6.13;100.00
8941;BME280;4505;43.406;23.226;2023-02-23T00:25:28;99787.16;;;5.95;100.00
8941;BME280;4505;43.406;23.226;2023-02-23T00:27:57;99786.94;;;5.90;100.00
8941;BME280;4505;43.406;23.226;2023-02-23T00:30:24;99787.56;;;6.05;100.00
8941;BME280;4505;43.406;23.226;2023-02-23T00:32:50;99791.19;;;6.04;100.00
8941;BME280;4505;43.406;23.226;2023-02-23T00:35:17;99784.91;;;6.38;100.00
8941;BME280;4505;43.406;23.226;2023-02-23T00:37:45;99792.66;;;6.26;100.00
8941;BME280;4505;43.406;23.226;2023-02-23T00:40:12;99792.03;;;6.24;100.00
8941;BME280;4505;43.406;23.226;2023-02-23T00:42:41;99787.53;;;6.25;100.00
8941;BME280;4505;43.406;23.226;2023-02-23T00:45:09;99781.47;;;6.11;100.00
8941;BME280;4505;43.406;23.226;2023-02-23T00:47:37;99781.47;;;6.18;100.00
8941;BME280;4505;43.406;23.226;2023-02-23T00:50:04;99784.53;;;6.08;100.00
8941;BME280;4505;43.406;23.226;2023-02-23T00:52:31;99787.75;;;5.97;100.00
8941;BME280;4505;43.406;23.226;2023-02-23T00:54:58;99778.16;;;5.76;100.00
8941;BME280;4505;43.406;23.226;2023-02-23T00:57:24;99777.00;;;5.86;100.00
8941;BME280;4505;43.406;23.226;2023-02-23T00:59:51;99776.81;;;5.94;100.00
8941;BME280;4505;43.406;23.226;2023-02-23T01:02:19;99782.63;;;5.76;100.00
8941;BME280;4505;43.406;23.226;2023-02-23T01:04:46;99784.00;;;5.59;100.00
8941;BME280;4505;43.406;23.226;2023-02-23T01:07:12;99778.72;;;5.59;100.00
8941;BME280;4505;43.406;23.226;2023-02-23T01:09:39;99771.06;;;5.77;100.00
8941;BME280;4505;43.406;23.226;2023-02-23T01:12:06;99786.44;;;5.54;100.00
8941;BME280;4505;43.406;23.226;2023-02-23T01:14:33;99779.53;;;5.53;100.00
8941;BME280;4505;43.406;23.226;2023-02-23T01:16:59;99775.72;;;5.55;100.00
8941;BME280;4505;43.406;23.226;2023-02-23T01:19:27;99777.53;;;5.55;100.00
8941;BME280;4505;43.406;23.226;2023-02-23T01:21:58;99780.56;;;5.52;100.00
8941;BME280;4505;43.406;23.226;2023-02-23T01:24:26;99777.09;;;5.51;100.00
8941;BME280;4505;43.406;23.226;2023-02-23T01:26:53;99778.69;;;5.39;100.00
8941;BME280;4505;43.406;23.226;2023-02-23T01:29:19;99780.09;;;5.42;100.00
8941;BME280;4505;43.406;23.226;2023-02-23T01:31:47;99777.09;;;5.51;100.00
8941;BME280;4505;43.406;23.226;2023-02-23T01:34:15;99768.19;;;5.59;100.00
8941;BME280;4505;43.406;23.226;2023-02-23T01:36:43;99772.66;;;5.58;100.00
8941;BME280;4505;43.406;23.226;2023-02-23T01:39:11;99775.50;;;5.57;100.00
8941;BME280;4505;43.406;23.226;2023-02-23T01:41:38;99779.28;;;5.41;100.00
8941;BME280;4505;43.406;23.226;2023-02-23T01:44:07;99779.59;;;5.79;100.00
8941;BME280;4505;43.406;23.226;2023-02-23T01:46:34;99780.78;;;5.76;100.00
8941;BME280;4505;43.406;23.226;2023-02-23T01:49:03;99777.91;;;5.52;100.00
8941;BME280;4505;43.406;23.226;2023-02-23T01:51:32;99782.53;;;5.43;100.00
8941;BME280;4505;43.406;23.226;2023-02-23T01:54:03;99796.25;;;5.93;100.00
8941;BME280;4505;43.406;23.226;2023-02-23T01:56:33;99794.97;;;5.75;100.00
8941;BME280;4505;43.406;23.226;2023-02-23T01:59:03;99805.34;;;5.17;100.00
8941;BME280;4505;43.406;23.226;2023-02-23T02:01:31;99806.22;;;5.37;100.00
8941;BME280;4505;43.406;23.226;2023-02-23T02:03:59;99804.19;;;5.32;100.00
8941;BME280;4505;43.406;23.226;2023-02-23T02:06:26;99801.91;;;5.23;100.00
8941;BME280;4505;43.406;23.226;2023-02-23T02:08:55;99796.63;;;5.16;100.00
8941;BME280;4505;43.406;23.226;2023-02-23T02:11:24;99790.25;;;4.91;100.00
8941;BME280;4505;43.406;23.226;2023-02-23T02:14:01;99794.94;;;5.02;100.00
8941;BME280;4505;43.406;23.226;2023-02-23T02:16:35;99802.88;;;5.09;100.00
8941;BME280;4505;43.406;23.226;2023-02-23T02:22:16;99803.22;;;4.99;100.00
8941;BME280;4505;43.406;23.226;2023-02-23T02:27:44;99812.31;;;4.63;100.00
8941;BME280;4505;43.406;23.226;2023-02-23T02:33:23;99812.50;;;4.61;100.00
8941;BME280;4505;43.406;23.226;2023-02-23T02:36:10;99808.63;;;4.85;100.00
8941;BME280;4505;43.406;23.226;2023-02-23T02:38:47;99805.94;;;4.78;100.00
8941;BME280;4505;43.406;23.226;2023-02-23T02:41:19;99809.56;;;4.77;100.00
8941;BME280;4505;43.406;23.226;2023-02-23T02:43:49;99811.66;;;4.88;100.00
8941;BME280;4505;43.406;23.226;2023-02-23T02:46:20;99814.31;;;4.95;100.00
8941;BME280;4505;43.406;23.226;2023-02-23T02:48:49;99811.50;;;4.90;100.00
8941;BME280;4505;43.406;23.226;2023-02-23T02:51:22;99817.88;;;4.81;100.00
8941;BME280;4505;43.406;23.226;2023-02-23T02:53:55;99817.53;;;4.90;100.00
8941;BME280;4505;43.406;23.226;2023-02-23T02:56:24;99810.03;;;4.87;100.00
8941;BME280;4505;43.406;23.226;2023-02-23T02:58:55;99820.13;;;4.84;100.00
8941;BME280;4505;43.406;23.226;2023-02-23T03:01:24;99817.19;;;5.00;100.00
8941;BME280;4505;43.406;23.226;2023-02-23T03:04:18;99822.69;;;5.05;100.00
8941;BME280;4505;43.406;23.226;2023-02-23T03:07:03;99827.06;;;4.91;100.00
8941;BME280;4505;43.406;23.226;2023-02-23T03:09:52;99831.66;;;5.17;100.00
8941;BME280;4505;43.406;23.226;2023-02-23T03:12:40;99828.28;;;4.95;100.00
8941;BME280;4505;43.406;23.226;2023-02-23T03:15:31;99829.03;;;4.83;100.00
8941;BME280;4505;43.406;23.226;2023-02-23T03:18:32;99831.03;;;4.81;100.00
8941;BME280;4505;43.406;23.226;2023-02-23T03:21:21;99835.66;;;5.06;100.00
8941;BME280;4505;43.406;23.226;2023-02-23T03:24:09;99832.44;;;5.17;100.00
8941;BME280;4505;43.406;23.226;2023-02-23T03:27:03;99842.78;;;5.19;100.00
8941;BME280;4505;43.406;23.226;2023-02-23T03:29:51;99841.41;;;4.89;100.00
8941;BME280;4505;43.406;23.226;2023-02-23T03:32:41;99843.50;;;4.66;100.00
8941;BME280;4505;43.406;23.226;2023-02-23T03:35:28;99837.78;;;4.90;100.00
8941;BME280;4505;43.406;23.226;2023-02-23T03:38:14;99843.56;;;4.79;100.00
8941;BME280;4505;43.406;23.226;2023-02-23T03:41:01;99845.69;;;4.90;100.00
8941;BME280;4505;43.406;23.226;2023-02-23T03:43:51;99845.94;;;5.01;100.00
8941;BME280;4505;43.406;23.226;2023-02-23T03:46:36;99847.41;;;5.10;100.00
8941;BME280;4505;43.406;23.226;2023-02-23T03:49:21;99850.84;;;5.11;100.00
8941;BME280;4505;43.406;23.226;2023-02-23T03:52:09;99848.03;;;4.78;100.00
8941;BME280;4505;43.406;23.226;2023-02-23T03:54:57;99854.28;;;4.77;100.00
8941;BME280;4505;43.406;23.226;2023-02-23T03:57:42;99862.19;;;4.77;100.00
8941;BME280;4505;43.406;23.226;2023-02-23T04:00:31;99870.25;;;4.76;100.00
8941;BME280;4505;43.406;23.226;2023-02-23T04:03:19;99860.94;;;4.73;100.00
8941;BME280;4505;43.406;23.226;2023-02-23T04:06:14;99867.53;;;4.63;100.00
8941;BME280;4505;43.406;23.226;2023-02-23T04:09:00;99864.81;;;4.50;100.00
8941;BME280;4505;43.406;23.226;2023-02-23T04:11:46;99875.47;;;4.20;100.00
8941;BME280;4505;43.406;23.226;2023-02-23T04:14:35;99879.72;;;4.43;100.00
8941;BME280;4505;43.406;23.226;2023-02-23T04:17:03;99879.59;;;4.51;100.00
8941;BME280;4505;43.406;23.226;2023-02-23T04:19:30;99883.91;;;4.37;100.00
8941;BME280;4505;43.406;23.226;2023-02-23T04:21:56;99880.09;;;4.61;100.00
8941;BME280;4505;43.406;23.226;2023-02-23T04:24:23;99875.66;;;4.68;100.00
8941;BME280;4505;43.406;23.226;2023-02-23T04:26:49;99892.88;;;4.43;100.00
8941;BME280;4505;43.406;23.226;2023-02-23T04:29:16;99888.66;;;4.48;100.00
8941;BME280;4505;43.406;23.226;2023-02-23T04:31:43;99891.53;;;4.53;100.00
8941;BME280;4505;43.406;23.226;2023-02-23T04:34:11;99887.84;;;4.48;100.00
8941;BME280;4505;43.406;23.226;2023-02-23T04:36:38;99887.84;;;4.48;100.00
8941;BME280;4505;43.406;23.226;2023-02-23T04:39:05;99888.66;;;4.48;100.00
8941;BME280;4505;43.406;23.226;2023-02-23T04:41:32;99894.72;;;4.49;100.00
8941;BME280;4505;43.406;23.226;2023-02-23T04:43:58;99893.41;;;4.59;100.00
8941;BME280;4505;43.406;23.226;2023-02-23T04:46:25;99902.38;;;4.43;100.00
8941;BME280;4505;43.406;23.226;2023-02-23T04:48:52;99901.63;;;4.28;100.00
8941;BME280;4505;43.406;23.226;2023-02-23T04:51:20;99899.63;;;4.30;100.00
8941;BME280;4505;43.406;23.226;2023-02-23T04:53:46;99905.19;;;4.21;100.00
8941;BME280;4505;43.406;23.226;2023-02-23T04:56:13;99898.13;;;4.21;100.00
8941;BME280;4505;43.406;23.226;2023-02-23T04:58:40;99909.47;;;4.22;100.00
8941;BME280;4505;43.406;23.226;2023-02-23T05:01:07;99909.81;;;4.40;100.00
8941;BME280;4505;43.406;23.226;2023-02-23T05:03:34;99909.13;;;4.53;100.00
8941;BME280;4505;43.406;23.226;2023-02-23T05:06:01;99911.25;;;4.00;100.00
8941;BME280;4505;43.406;23.226;2023-02-23T05:08:29;99901.00;;;4.26;100.00
8941;BME280;4505;43.406;23.226;2023-02-23T05:10:56;99914.91;;;3.85;100.00
8941;BME280;4505;43.406;23.226;2023-02-23T05:13:22;99924.03;;;3.89;100.00
8941;BME280;4505;43.406;23.226;2023-02-23T05:15:49;99917.59;;;4.27;100.00
8941;BME280;4505;43.406;23.226;2023-02-23T05:18:15;99920.81;;;4.08;100.00
8941;BME280;4505;43.406;23.226;2023-02-23T05:20:42;99924.03;;;4.24;100.00
8941;BME280;4505;43.406;23.226;2023-02-23T05:23:09;99916.91;;;4.39;100.00
8941;BME280;4505;43.406;23.226;2023-02-23T05:25:38;99925.44;;;4.42;100.00
8941;BME280;4505;43.406;23.226;2023-02-23T05:28:04;99925.78;;;4.60;100.00
8941;BME280;4505;43.406;23.226;2023-02-23T05:30:31;99935.38;;;4.67;100.00
8941;BME280;4505;43.406;23.226;2023-02-23T05:32:58;99941.72;;;4.16;100.00
8941;BME280;4505;43.406;23.226;2023-02-23T05:35:25;99944.94;;;4.32;100.00
8941;BME280;4505;43.406;23.226;2023-02-23T05:37:52;99949.69;;;4.22;100.00
8941;BME280;4505;43.406;23.226;2023-02-23T05:40:24;99945.50;;;4.28;100.00
8941;BME280;4505;43.406;23.226;2023-02-23T05:42:58;99949.59;;;4.16;100.00
8941;BME280;4505;43.406;23.226;2023-02-23T05:45:25;99957.13;;;4.40;100.00
8941;BME280;4505;43.406;23.226;2023-02-23T05:47:52;99960.41;;;4.63;100.00
8941;BME280;4505;43.406;23.226;2023-02-23T05:50:18;99963.72;;;4.51;100.00
8941;BME280;4505;43.406;23.226;2023-02-23T05:52:45;99969.63;;;4.53;100.00
8941;BME280;4505;43.406;23.226;2023-02-23T05:55:12;99983.69;;;4.45;100.00
8941;BME280;4505;43.406;23.226;2023-02-23T05:57:39;99983.63;;;4.38;100.00
8941;BME280;4505;43.406;23.226;2023-02-23T06:00:09;99985.03;;;4.56;100.00
8941;BME280;4505;43.406;23.226;2023-02-23T06:02:35;99985.28;;;4.82;100.00
8941;BME280;4505;43.406;23.226;2023-02-23T06:05:02;99987.56;;;4.91;100.00
8941;BME280;4505;43.406;23.226;2023-02-23T06:07:30;99984.66;;;5.07;100.00
8941;BME280;4505;43.406;23.226;2023-02-23T06:09:56;99996.53;;;4.76;100.00
8941;BME280;4505;43.406;23.226;2023-02-23T06:12:23;99994.38;;;5.07;100.00
8941;BME280;4505;43.406;23.226;2023-02-23T06:14:49;100012.97;;;5.26;100.00
8941;BME280;4505;43.406;23.226;2023-02-23T06:17:17;100004.66;;;4.81;100.00
8941;BME280;4505;43.406;23.226;2023-02-23T06:19:44;100012.66;;;5.15;100.00
8941;BME280;4505;43.406;23.226;2023-02-23T06:22:10;100011.75;;;5.29;100.00
8941;BME280;4505;43.406;23.226;2023-02-23T06:24:37;100015.03;;;5.10;100.00
8941;BME280;4505;43.406;23.226;2023-02-23T06:27:04;100010.16;;;5.07;100.00
8941;BME280;4505;43.406;23.226;2023-02-23T06:29:31;100019.88;;;5.34;100.00
8941;BME280;4505;43.406;23.226;2023-02-23T06:31:57;100022.56;;;5.40;100.00
8941;BME280;4505;43.406;23.226;2023-02-23T06:34:25;100026.19;;;5.33;100.00
8941;BME280;4505;43.406;23.226;2023-02-23T06:36:52;100017.69;;;6.06;100.00
8941;BME280;4505;43.406;23.226;2023-02-23T06:39:18;100015.44;;;6.03;100.00
8941;BME280;4505;43.406;23.226;2023-02-23T06:41:45;100014.94;;;6.27;100.00
8941;BME280;4505;43.406;23.226;2023-02-23T06:44:12;100019.16;;;6.15;100.00
8941;BME280;4505;43.406;23.226;2023-02-23T06:46:38;100025.34;;;6.41;100.00
8941;BME280;4505;43.406;23.226;2023-02-23T06:49:05;100025.34;;;6.41;100.00
8941;BME280;4505;43.406;23.226;2023-02-23T06:51:33;100024.16;;;5.97;100.00
8941;BME280;4505;43.406;23.226;2023-02-23T06:54:02;100016.97;;;6.18;100.00
8941;BME280;4505;43.406;23.226;2023-02-23T06:56:29;100020.59;;;6.24;100.00
8941;BME280;4505;43.406;23.226;2023-02-23T06:58:55;100021.88;;;6.34;100.00
8941;BME280;4505;43.406;23.226;2023-02-23T07:01:22;100031.69;;;6.73;100.00
8941;BME280;4505;43.406;23.226;2023-02-23T07:03:49;100023.81;;;7.32;100.00
8941;BME280;4505;43.406;23.226;2023-02-23T07:06:15;100021.59;;;7.02;100.00
8941;BME280;4505;43.406;23.226;2023-02-23T07:08:43;100023.41;;;6.95;100.00
8941;BME280;4505;43.406;23.226;2023-02-23T07:11:11;100025.44;;;6.93;100.00
8941;BME280;4505;43.406;23.226;2023-02-23T07:13:38;100014.47;;;6.83;100.00
8941;BME280;4505;43.406;23.226;2023-02-23T07:16:05;100018.34;;;7.13;100.00
8941;BME280;4505;43.406;23.226;2023-02-23T07:18:32;100023.78;;;6.73;100.00
8941;BME280;4505;43.406;23.226;2023-02-23T07:20:58;100028.63;;;6.56;100.00
8941;BME280;4505;43.406;23.226;2023-02-23T07:23:25;100026.63;;;6.71;100.00
8941;BME280;4505;43.406;23.226;2023-02-23T07:25:54;100029.25;;;6.65;100.00
8941;BME280;4505;43.406;23.226;2023-02-23T07:28:23;100027.50;;;7.11;100.00
8941;BME280;4505;43.406;23.226;2023-02-23T07:30:54;100026.47;;;7.12;100.00
8941;BME280;4505;43.406;23.226;2023-02-23T07:33:20;100023.16;;;7.75;100.00
8941;BME280;4505;43.406;23.226;2023-02-23T07:35:47;100021.59;;;7.42;100.00
8941;BME280;4505;43.406;23.226;2023-02-23T07:38:14;100021.50;;;7.81;100.00
8941;BME280;4505;43.406;23.226;2023-02-23T07:40:41;100031.94;;;7.37;100.00
8941;BME280;4505;43.406;23.226;2023-02-23T07:43:09;100027.28;;;7.12;100.00
8941;BME280;4505;43.406;23.226;2023-02-23T07:45:35;100029.72;;;7.47;100.00
8941;BME280;4505;43.406;23.226;2023-02-23T07:48:02;100027.09;;;7.34;100.00
8941;BME280;4505;43.406;23.226;2023-02-23T07:50:29;100022.66;;;8.11;100.00
8941;BME280;4505;43.406;23.226;2023-02-23T07:52:55;100029.19;;;7.95;100.00
8941;BME280;4505;43.406;23.226;2023-02-23T07:55:22;100020.47;;;7.88;100.00
8941;BME280;4505;43.406;23.226;2023-02-23T07:57:49;100027.09;;;7.40;100.00
8941;BME280;4505;43.406;23.226;2023-02-23T08:00:17;100023.97;;;8.39;100.00
8941;BME280;4505;43.406;23.226;2023-02-23T08:02:44;100027.22;;;8.73;100.00
8941;BME280;4505;43.406;23.226;2023-02-23T08:05:11;100019.94;;;8.24;100.00
8941;BME280;4505;43.406;23.226;2023-02-23T08:07:37;100029.94;;;8.15;100.00
8941;BME280;4505;43.406;23.226;2023-02-23T08:10:04;100036.88;;;8.10;100.00
8941;BME280;4505;43.406;23.226;2023-02-23T08:12:31;100037.28;;;8.13;100.00
8941;BME280;4505;43.406;23.226;2023-02-23T08:14:58;100035.63;;;8.25;100.00
8941;BME280;4505;43.406;23.226;2023-02-23T08:17:26;100036.19;;;8.78;100.00
8941;BME280;4505;43.406;23.226;2023-02-23T08:19:53;100036.34;;;8.83;100.00
8941;BME280;4505;43.406;23.226;2023-02-23T08:22:19;100036.78;;;8.73;100.00
8941;BME280;4505;43.406;23.226;2023-02-23T08:24:47;100034.94;;;9.30;100.00
8941;BME280;4505;43.406;23.226;2023-02-23T08:27:13;100042.31;;;9.03;100.00
8941;BME280;4505;43.406;23.226;2023-02-23T08:29:40;100045.03;;;9.21;100.00
8941;BME280;4505;43.406;23.226;2023-02-23T08:32:07;100038.94;;;8.90;100.00
8941;BME280;4505;43.406;23.226;2023-02-23T08:34:39;100038.41;;;9.06;100.00
8941;BME280;4505;43.406;23.226;2023-02-23T08:37:07;100039.97;;;8.89;100.00
8941;BME280;4505;43.406;23.226;2023-02-23T08:39:34;100043.00;;;8.92;100.00
8941;BME280;4505;43.406;23.226;2023-02-23T08:42:01;100044.53;;;9.06;100.00
8941;BME280;4505;43.406;23.226;2023-02-23T08:44:28;100038.41;;;8.81;100.00
8941;BME280;4505;43.406;23.226;2023-02-23T08:46:54;100044.06;;;9.40;100.00
8941;BME280;4505;43.406;23.226;2023-02-23T08:49:22;100040.16;;;9.43;100.00
8941;BME280;4505;43.406;23.226;2023-02-23T08:51:50;100048.63;;;9.76;100.00
8941;BME280;4505;43.406;23.226;2023-02-23T08:54:17;100031.41;;;9.60;100.00
8941;BME280;4505;43.406;23.226;2023-02-23T08:56:44;100035.75;;;9.79;100.00
8941;BME280;4505;43.406;23.226;2023-02-23T08:59:11;100039.91;;;10.12;100.00
8941;BME280;4505;43.406;23.226;2023-02-23T09:01:39;100048.53;;;9.40;100.00
8941;BME280;4505;43.406;23.226;2023-02-23T09:04:06;100045.09;;;9.39;100.00
8941;BME280;4505;43.406;23.226;2023-02-23T09:06:33;100046.03;;;9.45;100.00
8941;BME280;4505;43.406;23.226;2023-02-23T09:09:01;100046.66;;;9.47;100.00
8941;BME280;4505;43.406;23.226;2023-02-23T09:11:28;100054.66;;;9.65;100.00
8941;BME280;4505;43.406;23.226;2023-02-23T09:13:55;100045.00;;;9.88;100.00
8941;BME280;4505;43.406;23.226;2023-02-23T09:16:22;100050.50;;;9.69;100.00
8941;BME280;4505;43.406;23.226;2023-02-23T09:18:48;100046.22;;;10.29;100.00
8941;BME280;4505;43.406;23.226;2023-02-23T09:21:16;100053.50;;;10.51;100.00
8941;BME280;4505;43.406;23.226;2023-02-23T09:23:49;100044.16;;;10.31;100.00
8941;BME280;4505;43.406;23.226;2023-02-23T09:26:18;100051.34;;;10.05;100.00
8941;BME280;4505;43.406;23.226;2023-02-23T09:28:45;100049.66;;;9.93;100.00
8941;BME280;4505;43.406;23.226;2023-02-23T09:31:13;100050.63;;;9.98;100.00
8941;BME280;4505;43.406;23.226;2023-02-23T09:33:40;100056.66;;;10.05;100.00
8941;BME280;4505;43.406;23.226;2023-02-23T09:36:07;100049.94;;;10.57;100.00
8941;BME280;4505;43.406;23.226;2023-02-23T09:38:36;100048.41;;;10.50;100.00
8941;BME280;4505;43.406;23.226;2023-02-23T09:41:03;100048.50;;;10.43;100.00
8941;BME280;4505;43.406;23.226;2023-02-23T09:43:38;100058.81;;;9.97;100.00
8941;BME280;4505;43.406;23.226;2023-02-23T09:46:10;100050.78;;;10.22;100.00
8941;BME280;4505;43.406;23.226;2023-02-23T09:48:42;100055.72;;;10.18;100.00
8941;BME280;4505;43.406;23.226;2023-02-23T09:51:09;100057.22;;;10.14;100.00
8941;BME280;4505;43.406;23.226;2023-02-23T09:53:41;100053.22;;;10.23;100.00
8941;BME280;4505;43.406;23.226;2023-02-23T09:56:11;100057.91;;;9.85;100.00
8941;BME280;4505;43.406;23.226;2023-02-23T09:58:40;100060.59;;;10.69;100.00
8941;BME280;4505;43.406;23.226;2023-02-23T10:01:26;100053.44;;;11.10;100.00
8941;BME280;4505;43.406;23.226;2023-02-23T10:04:00;100059.66;;;11.92;100.00
8941;BME280;4505;43.406;23.226;2023-02-23T10:06:27;100056.13;;;11.10;100.00
8941;BME280;4505;43.406;23.226;2023-02-23T10:08:56;100051.72;;;11.80;100.00
8941;BME280;4505;43.406;23.226;2023-02-23T10:11:28;100054.25;;;11.64;100.00
8941;BME280;4505;43.406;23.226;2023-02-23T10:14:11;100061.13;;;10.89;100.00
8941;BME280;4505;43.406;23.226;2023-02-23T10:16:42;100064.00;;;10.87;100.00
8941;BME280;4505;43.406;23.226;2023-02-23T10:19:12;100059.38;;;10.83;100.00
8941;BME280;4505;43.406;23.226;2023-02-23T10:21:43;100055.56;;;11.31;100.00
8941;BME280;4505;43.406;23.226;2023-02-23T10:24:12;100049.09;;;12.20;100.00
8941;BME280;4505;43.406;23.226;2023-02-23T10:26:43;100048.38;;;12.24;100.00
8941;BME280;4505;43.406;23.226;2023-02-23T10:29:18;100048.97;;;11.34;100.00
8941;BME280;4505;43.406;23.226;2023-02-23T10:31:47;100048.81;;;11.82;100.00
8941;BME280;4505;43.406;23.226;2023-02-23T10:34:16;100058.38;;;10.84;100.00
8941;BME280;4505;43.406;23.226;2023-02-23T10:36:43;100054.16;;;11.06;100.00
8941;BME280;4505;43.406;23.226;2023-02-23T10:39:11;100059.91;;;11.03;100.00
8941;BME280;4505;43.406;23.226;2023-02-23T10:41:38;100058.63;;;11.05;100.00
8941;BME280;4505;43.406;23.226;2023-02-23T10:44:10;100046.19;;;11.17;100.00
8941;BME280;4505;43.406;23.226;2023-02-23T10:46:42;100049.75;;;11.00;100.00
8941;BME280;4505;43.406;23.226;2023-02-23T10:49:09;100055.63;;;11.02;100.00
8941;BME280;4505;43.406;23.226;2023-02-23T10:51:40;100051.13;;;11.02;100.00
8941;BME280;4505;43.406;23.226;2023-02-23T10:56:53;100038.97;;;11.71;100.00
8941;BME280;4505;43.406;23.226;2023-02-23T10:59:20;100036.97;;;12.12;100.00
8941;BME280;4505;43.406;23.226;2023-02-23T11:01:48;100028.88;;;11.26;100.00
8941;BME280;4505;43.406;23.226;2023-02-23T11:04:19;100034.88;;;12.03;100.00
8941;BME280;4505;43.406;23.226;2023-02-23T11:06:47;100035.25;;;11.25;100.00
8941;BME280;4505;43.406;23.226;2023-02-23T11:09:21;100028.78;;;11.68;100.00
8941;BME280;4505;43.406;23.226;2023-02-23T11:11:55;100028.41;;;12.10;100.00
8941;BME280;4505;43.406;23.226;2023-02-23T11:14:23;100032.81;;;11.93;100.00
8941;BME280;4505;43.406;23.226;2023-02-23T11:16:53;100021.09;;;12.73;100.00
8941;BME280;4505;43.406;23.226;2023-02-23T11:19:23;100018.13;;;11.91;100.00
8941;BME280;4505;43.406;23.226;2023-02-23T11:21:51;100031.47;;;12.19;100.00
8941;BME280;4505;43.406;23.226;2023-02-23T11:24:21;100029.78;;;12.13;100.00
8941;BME280;4505;43.406;23.226;2023-02-23T11:26:50;100026.94;;;11.91;100.00
8941;BME280;4505;43.406;23.226;2023-02-23T11:29:19;100031.91;;;11.76;100.00
8941;BME280;4505;43.406;23.226;2023-02-23T11:31:48;100026.75;;;12.09;100.00
8941;BME280;4505;43.406;23.226;2023-02-23T11:34:21;100031.69;;;11.78;100.00
8941;BME280;4505;43.406;23.226;2023-02-23T11:36:56;100024.03;;;11.35;100.00
8941;BME280;4505;43.406;23.226;2023-02-23T11:39:23;100032.97;;;11.75;100.00
8941;BME280;4505;43.406;23.226;2023-02-23T11:42:03;100032.22;;;11.22;100.00
8941;BME280;4505;43.406;23.226;2023-02-23T11:44:29;100033.16;;;11.85;100.00
8941;BME280;4505;43.406;23.226;2023-02-23T11:46:56;100025.31;;;11.79;100.00
8941;BME280;4505;43.406;23.226;2023-02-23T11:49:25;100031.91;;;11.88;100.00
8941;BME280;4505;43.406;23.226;2023-02-23T11:51:54;100019.66;;;11.75;100.00
8941;BME280;4505;43.406;23.226;2023-02-23T11:54:24;100026.31;;;12.12;100.00
8941;BME280;4505;43.406;23.226;2023-02-23T11:56:52;100026.13;;;11.56;100.00
8941;BME280;4505;43.406;23.226;2023-02-23T11:59:23;100026.47;;;11.71;100.00
8941;BME280;4505;43.406;23.226;2023-02-23T12:01:52;100029.28;;;11.00;100.00
8941;BME280;4505;43.406;23.226;2023-02-23T12:04:23;100022.41;;;11.45;100.00
8941;BME280;4505;43.406;23.226;2023-02-23T12:06:54;100028.97;;;11.54;100.00
8941;BME280;4505;43.406;23.226;2023-02-23T12:09:22;100032.03;;;11.81;100.00
8941;BME280;4505;43.406;23.226;2023-02-23T12:11:53;100024.16;;;12.37;100.00
8941;BME280;4505;43.406;23.226;2023-02-23T12:14:26;100022.44;;;11.69;100.00
8941;BME280;4505;43.406;23.226;2023-02-23T12:16:56;100021.97;;;12.62;100.00
8941;BME280;4505;43.406;23.226;2023-02-23T12:19:26;100009.94;;;12.60;100.00
8941;BME280;4505;43.406;23.226;2023-02-23T12:21:57;100030.31;;;13.11;100.00
8941;BME280;4505;43.406;23.226;2023-02-23T12:24:27;100023.13;;;11.76;100.00
8941;BME280;4505;43.406;23.226;2023-02-23T12:26:59;100021.94;;;11.48;100.00
8941;BME280;4505;43.406;23.226;2023-02-23T12:29:28;100020.13;;;11.72;100.00
8941;BME280;4505;43.406;23.226;2023-02-23T12:31:57;100019.69;;;12.15;100.00
8941;BME280;4505;43.406;23.226;2023-02-23T12:34:27;100017.44;;;11.84;100.00
8941;BME280;4505;43.406;23.226;2023-02-23T12:36:59;100020.72;;;12.53;100.00
8941;BME280;4505;43.406;23.226;2023-02-23T12:39:31;100031.06;;;11.99;100.00
8941;BME280;4505;43.406;23.226;2023-02-23T12:42:00;100021.00;;;12.40;100.00
8941;BME280;4505;43.406;23.226;2023-02-23T12:44:37;100025.34;;;12.58;100.00
8941;BME280;4505;43.406;23.226;2023-02-23T12:47:08;100030.47;;;12.08;100.00
8941;BME280;4505;43.406;23.226;2023-02-23T12:49:40;100016.16;;;12.65;100.00
8941;BME280;4505;43.406;23.226;2023-02-23T12:52:10;100035.75;;;12.31;100.00
8941;BME280;4505;43.406;23.226;2023-02-23T12:54:39;100030.44;;;12.31;100.00
8941;BME280;4505;43.406;23.226;2023-02-23T12:57:08;100034.56;;;11.76;100.00
8941;BME280;4505;43.406;23.226;2023-02-23T12:59:43;100026.47;;;11.94;100.00
8941;BME280;4505;43.406;23.226;2023-02-23T13:02:13;100027.97;;;11.90;100.00
8941;BME280;4505;43.406;23.226;2023-02-23T13:04:54;100025.88;;;11.46;100.00
8941;BME280;4505;43.406;23.226;2023-02-23T13:07:28;100028.00;;;12.58;100.00
8941;BME280;4505;43.406;23.226;2023-02-23T13:10:01;100032.56;;;13.02;100.00
8941;BME280;4505;43.406;23.226;2023-02-23T13:12:34;100033.09;;;12.87;100.00
8941;BME280;4505;43.406;23.226;2023-02-23T13:15:07;100036.16;;;12.79;100.00
8941;BME280;4505;43.406;23.226;2023-02-23T13:17:36;100028.38;;;12.78;100.00
8941;BME280;4505;43.406;23.226;2023-02-23T13:20:05;100032.94;;;11.87;100.00
8941;BME280;4505;43.406;23.226;2023-02-23T13:22:41;100043.72;;;11.80;100.00
8941;BME280;4505;43.406;23.226;2023-02-23T13:25:24;100039.06;;;11.99;100.00
8941;BME280;4505;43.406;23.226;2023-02-23T13:27:54;100047.03;;;12.10;100.00
8941;BME280;4505;43.406;23.226;2023-02-23T13:30:22;100034.84;;;12.82;100.00